createdAt,value
2022-11-06T00:00:48.558Z,35.20
2022-11-06T00:01:48.590Z,37.30
2022-11-06T00:02:48.645Z,36.00
2022-11-06T00:03:48.558Z,38.00
2022-11-06T00:04:48.534Z,36.80
2022-11-06T00:05:48.539Z,38.00
2022-11-06T00:06:48.527Z,25.90
2022-11-06T00:07:48.519Z,31.30
2022-11-06T00:08:48.514Z,35.90
2022-11-06T00:09:48.518Z,36.70
2022-11-06T00:10:48.499Z,37.40
2022-11-06T00:11:48.507Z,39.10
2022-11-06T00:12:48.492Z,39.10
2022-11-06T00:13:48.482Z,37.10
2022-11-06T00:14:48.517Z,37.20
2022-11-06T00:15:48.470Z,36.10
2022-11-06T00:16:48.462Z,37.40
2022-11-06T00:17:48.523Z,38.10
2022-11-06T00:18:48.449Z,34.20
2022-11-06T00:19:48.461Z,34.90
2022-11-06T00:20:48.457Z,37.70
2022-11-06T00:21:48.443Z,40.70
2022-11-06T00:22:49.271Z,40.30
2022-11-06T00:23:48.433Z,27.80
2022-11-06T00:24:48.435Z,30.80
2022-11-06T00:25:48.401Z,34.30
2022-11-06T00:26:54.015Z,35.40
2022-11-06T00:27:50.394Z,39.90
2022-11-06T00:28:48.387Z,39.10
2022-11-06T00:29:48.413Z,41.80
2022-11-06T00:30:48.376Z,40.60
2022-11-06T00:31:48.366Z,40.50
2022-11-06T00:32:48.393Z,42.30
2022-11-06T00:33:48.413Z,43.10
2022-11-06T00:34:48.349Z,46.10
2022-11-06T00:35:48.386Z,44.10
2022-11-06T00:36:48.341Z,45.00
2022-11-06T00:37:48.429Z,46.30
2022-11-06T00:38:48.345Z,46.00
2022-11-06T00:39:48.315Z,46.10
2022-11-06T00:40:48.335Z,42.80
2022-11-06T00:41:48.313Z,37.90
2022-11-06T00:42:48.327Z,33.80
2022-11-06T00:43:48.329Z,38.70
2022-11-06T00:44:48.282Z,44.60
2022-11-06T00:45:48.290Z,44.30
2022-11-06T00:46:48.300Z,46.30
2022-11-06T00:47:48.837Z,43.80
2022-11-06T00:48:48.282Z,44.40
2022-11-06T00:49:48.265Z,47.50
2022-11-06T00:50:52.383Z,49.30
2022-11-06T00:52:20.199Z,41.90
2022-11-06T00:52:48.248Z,35.60
2022-11-06T00:53:48.262Z,42.50
2022-11-06T00:54:48.233Z,47.70
2022-11-06T00:55:48.226Z,46.20
2022-11-06T00:56:48.223Z,47.80
2022-11-06T00:57:48.217Z,46.80
2022-11-06T00:58:48.220Z,48.50
2022-11-06T00:59:48.233Z,47.10
2022-11-06T01:00:48.225Z,47.70
2022-11-06T01:01:48.325Z,50.30
2022-11-06T01:02:48.369Z,45.10
2022-11-06T01:03:48.187Z,48.70
2022-11-06T01:04:48.184Z,42.10
2022-11-06T01:05:48.183Z,48.40
2022-11-06T01:06:48.183Z,42.10
2022-11-06T01:07:48.183Z,25.80
2022-11-06T01:08:48.180Z,33.50
2022-11-06T01:09:48.168Z,35.80
2022-11-06T01:10:48.140Z,40.60
2022-11-06T01:12:50.126Z,44.80
2022-11-06T01:13:48.141Z,45.30
2022-11-06T01:14:48.126Z,46.10
2022-11-06T01:15:48.136Z,46.20
2022-11-06T01:16:48.124Z,42.50
2022-11-06T01:17:48.109Z,42.00
2022-11-06T01:18:48.103Z,40.10
2022-11-06T01:19:48.239Z,45.20
2022-11-06T01:20:48.080Z,49.00
2022-11-06T01:21:48.096Z,49.40
2022-11-06T01:22:48.074Z,52.10
2022-11-06T01:23:48.060Z,38.90
2022-11-06T01:24:48.259Z,41.10
2022-11-06T01:25:48.056Z,45.10
2022-11-06T01:27:11.968Z,46.00
2022-11-06T01:27:50.055Z,41.20
2022-11-06T01:28:48.034Z,43.60
2022-11-06T01:29:48.057Z,42.80
2022-11-06T01:30:48.022Z,40.50
2022-11-06T01:31:48.022Z,39.20
2022-11-06T01:32:48.022Z,37.40
2022-11-06T01:33:48.006Z,43.70
2022-11-06T01:34:48.029Z,47.10
2022-11-06T01:35:48.985Z,42.40
2022-11-06T01:36:47.996Z,29.70
2022-11-06T01:37:47.977Z,38.90
2022-11-06T01:38:47.973Z,43.70
2022-11-06T01:39:47.969Z,41.90
2022-11-06T01:40:47.973Z,44.70
2022-11-06T01:41:47.959Z,41.50
2022-11-06T01:42:47.977Z,42.90
2022-11-06T01:43:47.937Z,42.70
2022-11-06T01:44:47.929Z,44.10
2022-11-06T01:45:47.954Z,40.00
2022-11-06T01:46:47.935Z,41.00
2022-11-06T01:47:47.921Z,44.10
2022-11-06T01:48:47.945Z,41.20
2022-11-06T01:49:47.921Z,46.00
2022-11-06T01:50:47.989Z,42.10
2022-11-06T01:51:47.906Z,43.40
2022-11-06T01:52:47.897Z,44.60
2022-11-06T01:53:47.895Z,37.90
2022-11-06T01:54:47.885Z,41.00
2022-11-06T01:55:47.901Z,41.10
2022-11-06T01:56:47.878Z,45.30
2022-11-06T01:57:47.878Z,42.40
2022-11-06T01:58:47.865Z,45.20
2022-11-06T01:59:47.882Z,46.50
2022-11-06T02:00:47.866Z,47.50
2022-11-06T02:01:47.900Z,46.50
2022-11-06T02:02:48.008Z,40.50
2022-11-06T02:03:47.835Z,42.30
2022-11-06T02:04:47.816Z,41.90
2022-11-06T02:05:47.830Z,44.90
2022-11-06T02:06:47.822Z,46.00
2022-11-06T02:07:47.814Z,50.50
2022-11-06T02:08:47.799Z,52.20
2022-11-06T02:09:47.802Z,32.50
2022-11-06T02:10:47.778Z,41.90
2022-11-06T02:11:47.943Z,42.50
2022-11-06T02:12:47.778Z,42.70
2022-11-06T02:13:47.917Z,48.00
2022-11-06T02:14:47.774Z,49.40
2022-11-06T02:15:47.761Z,49.70
2022-11-06T02:16:47.794Z,47.90
2022-11-06T02:17:47.772Z,48.70
2022-11-06T02:18:47.766Z,48.20
2022-11-06T02:19:47.737Z,50.00
2022-11-06T02:20:47.746Z,42.20
2022-11-06T02:21:47.717Z,42.00
2022-11-06T02:22:48.720Z,42.10
2022-11-06T02:23:47.729Z,43.90
2022-11-06T02:24:47.715Z,45.10
2022-11-06T02:25:48.690Z,43.10
2022-11-06T02:26:47.697Z,41.30
2022-11-06T02:27:47.698Z,45.80
2022-11-06T02:28:47.694Z,43.70
2022-11-06T02:29:47.676Z,47.30
2022-11-06T02:30:48.672Z,51.10
2022-11-06T02:31:47.688Z,51.90
2022-11-06T02:32:47.698Z,57.00
2022-11-06T02:33:50.307Z,52.30
2022-11-06T02:34:47.644Z,55.50
2022-11-06T02:35:47.663Z,31.20
2022-11-06T02:36:48.286Z,42.40
2022-11-06T02:37:47.645Z,39.70
2022-11-06T02:38:47.654Z,40.90
2022-11-06T02:39:48.719Z,43.20
2022-11-06T02:40:47.647Z,42.60
2022-11-06T02:41:47.608Z,41.60
2022-11-06T02:42:47.599Z,39.20
2022-11-06T02:43:47.615Z,39.20
2022-11-06T02:44:47.612Z,43.50
2022-11-06T02:45:47.595Z,44.60
2022-11-06T02:46:47.585Z,44.10
2022-11-06T02:47:47.566Z,45.50
2022-11-06T02:48:47.560Z,48.20
2022-11-06T02:49:47.563Z,52.00
2022-11-06T02:50:47.560Z,57.90
2022-11-06T02:51:47.566Z,33.50
2022-11-06T02:52:47.542Z,44.50
2022-11-06T02:53:47.539Z,43.70
2022-11-06T02:54:47.512Z,44.70
2022-11-06T02:55:47.527Z,41.80
2022-11-06T02:56:47.518Z,45.30
2022-11-06T02:57:47.524Z,44.70
2022-11-06T02:58:49.167Z,44.50
2022-11-06T02:59:48.496Z,46.20
2022-11-06T03:00:47.534Z,46.00
2022-11-06T03:01:47.583Z,47.90
2022-11-06T03:02:47.698Z,52.40
2022-11-06T03:03:47.548Z,55.60
2022-11-06T03:04:47.459Z,56.10
2022-11-06T03:05:47.481Z,53.00
2022-11-06T03:06:47.456Z,54.70
2022-11-06T03:07:47.445Z,30.70
2022-11-06T03:08:47.441Z,47.20
2022-11-06T03:09:47.452Z,44.30
2022-11-06T03:10:47.458Z,43.70
2022-11-06T03:11:47.424Z,47.00
2022-11-06T03:12:47.424Z,45.30
2022-11-06T03:13:47.430Z,45.70
2022-11-06T03:14:47.415Z,44.80
2022-11-06T03:15:47.415Z,47.00
2022-11-06T03:16:47.425Z,48.10
2022-11-06T03:17:47.400Z,47.00
2022-11-06T03:18:47.412Z,51.30
2022-11-06T03:19:47.376Z,52.00
2022-11-06T03:20:47.376Z,51.60
2022-11-06T03:21:47.391Z,53.80
2022-11-06T03:22:47.368Z,53.20
2022-11-06T03:23:47.376Z,52.50
2022-11-06T03:24:47.348Z,52.80
2022-11-06T03:25:47.349Z,32.20
2022-11-06T03:26:47.355Z,44.00
2022-11-06T03:27:47.348Z,46.50
2022-11-06T03:28:47.325Z,45.40
2022-11-06T03:29:47.315Z,45.50
2022-11-06T03:30:47.319Z,42.70
2022-11-06T03:31:47.297Z,43.90
2022-11-06T03:32:47.324Z,45.50
2022-11-06T03:33:47.308Z,44.50
2022-11-06T03:34:47.293Z,46.00
2022-11-06T03:35:47.281Z,47.00
2022-11-06T03:36:47.289Z,46.40
2022-11-06T03:37:47.289Z,50.20
2022-11-06T03:38:47.261Z,47.70
2022-11-06T03:39:47.256Z,48.20
2022-11-06T03:40:47.241Z,54.90
2022-11-06T03:41:48.254Z,57.20
2022-11-06T03:42:47.265Z,37.20
2022-11-06T03:43:47.256Z,42.40
2022-11-06T03:44:47.224Z,41.10
2022-11-06T03:45:47.218Z,39.20
2022-11-06T03:46:47.246Z,42.70
2022-11-06T03:47:47.224Z,42.50
2022-11-06T03:48:47.226Z,49.10
2022-11-06T03:49:47.219Z,47.30
2022-11-06T03:50:47.201Z,48.40
2022-11-06T03:51:47.184Z,46.30
2022-11-06T03:52:47.193Z,50.20
2022-11-06T03:53:47.193Z,50.20
2022-11-06T03:54:47.184Z,52.30
2022-11-06T03:55:47.160Z,51.10
2022-11-06T03:56:47.164Z,49.70
2022-11-06T03:57:47.169Z,31.40
2022-11-06T03:58:47.245Z,42.70
2022-11-06T03:59:47.138Z,38.80
2022-11-06T04:00:47.150Z,39.90
2022-11-06T04:01:47.223Z,40.20
2022-11-06T04:02:47.264Z,40.00
2022-11-06T04:03:47.129Z,40.80
2022-11-06T04:04:47.113Z,42.70
2022-11-06T04:05:47.117Z,41.10
2022-11-06T04:06:47.101Z,44.70
2022-11-06T04:07:47.100Z,44.50
2022-11-06T04:08:47.097Z,45.30
2022-11-06T04:09:47.085Z,49.00
2022-11-06T04:10:47.073Z,46.00
2022-11-06T04:11:47.085Z,51.80
2022-11-06T04:12:47.084Z,50.30
2022-11-06T04:13:47.067Z,50.20
2022-11-06T04:14:48.099Z,36.10
2022-11-06T04:15:47.058Z,38.40
2022-11-06T04:16:47.036Z,39.50
2022-11-06T04:17:47.033Z,39.80
2022-11-06T04:18:47.037Z,40.20
2022-11-06T04:19:47.032Z,40.70
2022-11-06T04:20:47.028Z,41.60
2022-11-06T04:21:47.025Z,39.50
2022-11-06T04:22:47.027Z,45.70
2022-11-06T04:23:47.013Z,48.30
2022-11-06T04:24:47.045Z,49.60
2022-11-06T04:25:46.994Z,48.40
2022-11-06T04:26:47.005Z,45.20
2022-11-06T04:27:46.985Z,45.40
2022-11-06T04:28:46.990Z,30.50
2022-11-06T04:29:47.000Z,36.30
2022-11-06T04:30:46.961Z,36.40
2022-11-06T04:31:46.954Z,36.30
2022-11-06T04:32:46.957Z,35.60
2022-11-06T04:33:46.933Z,38.50
2022-11-06T04:34:46.953Z,42.00
2022-11-06T04:35:46.941Z,39.40
2022-11-06T04:36:46.915Z,24.50
2022-11-06T04:37:47.921Z,35.30
2022-11-06T04:38:46.933Z,34.40
2022-11-06T04:39:46.937Z,33.30
2022-11-06T04:40:46.913Z,35.40
2022-11-06T04:41:46.903Z,40.60
2022-11-06T04:42:46.910Z,38.60
2022-11-06T04:43:46.882Z,30.90
2022-11-06T04:44:46.889Z,28.90
2022-11-06T04:45:46.888Z,25.70
2022-11-06T04:46:46.876Z,22.60
2022-11-06T04:47:46.863Z,30.40
2022-11-06T04:48:46.856Z,37.90
2022-11-06T04:49:46.872Z,33.40
2022-11-06T04:50:46.849Z,34.20
2022-11-06T04:51:46.853Z,40.80
2022-11-06T04:52:46.828Z,43.70
2022-11-06T04:53:47.915Z,39.80
2022-11-06T04:54:46.854Z,32.30
2022-11-06T04:55:46.823Z,34.80
2022-11-06T04:56:46.905Z,37.60
2022-11-06T04:57:46.809Z,44.90
2022-11-06T04:58:46.802Z,48.00
2022-11-06T04:59:46.822Z,45.60
2022-11-06T05:00:46.860Z,40.30
2022-11-06T05:01:47.976Z,42.00
2022-11-06T05:02:46.771Z,36.70
2022-11-06T05:03:46.762Z,34.90
2022-11-06T05:04:46.787Z,33.60
2022-11-06T05:05:46.771Z,29.30
2022-11-06T05:06:46.749Z,37.50
2022-11-06T05:07:46.755Z,44.90
2022-11-06T05:08:46.735Z,50.90
2022-11-06T05:09:46.725Z,53.00
2022-11-06T05:10:46.728Z,51.50
2022-11-06T05:11:46.717Z,37.30
2022-11-06T05:12:46.702Z,34.10
2022-11-06T05:13:46.705Z,37.30
2022-11-06T05:14:46.700Z,42.80
2022-11-06T05:15:46.712Z,42.90
2022-11-06T05:16:46.683Z,43.50
2022-11-06T05:17:46.696Z,44.70
2022-11-06T05:18:46.658Z,47.80
2022-11-06T05:19:46.662Z,50.70
2022-11-06T05:20:46.657Z,51.30
2022-11-06T05:21:46.691Z,52.00
2022-11-06T05:22:46.652Z,50.00
2022-11-06T05:23:46.656Z,44.70
2022-11-06T05:24:46.635Z,49.30
2022-11-06T05:25:46.630Z,48.70
2022-11-06T05:26:46.680Z,29.50
2022-11-06T05:27:46.621Z,40.00
2022-11-06T05:28:46.619Z,40.70
2022-11-06T05:29:46.602Z,42.40
2022-11-06T05:30:46.595Z,39.90
2022-11-06T05:31:46.751Z,40.80
2022-11-06T05:32:46.601Z,40.60
2022-11-06T05:33:46.599Z,42.80
2022-11-06T05:34:46.564Z,41.40
2022-11-06T05:35:46.563Z,43.00
2022-11-06T05:36:46.756Z,46.50
2022-11-06T05:37:46.543Z,44.70
2022-11-06T05:38:46.542Z,44.00
2022-11-06T05:39:46.540Z,46.10
2022-11-06T05:40:46.544Z,45.30
2022-11-06T05:41:46.621Z,35.20
2022-11-06T05:42:46.533Z,37.30
2022-11-06T05:43:46.510Z,35.30
2022-11-06T05:44:46.517Z,38.50
2022-11-06T05:45:46.506Z,42.30
2022-11-06T05:46:49.343Z,42.00
2022-11-06T05:47:47.480Z,37.90
2022-11-06T05:48:46.487Z,45.80
2022-11-06T05:49:46.484Z,43.10
2022-11-06T05:50:46.500Z,44.80
2022-11-06T05:51:46.489Z,45.40
2022-11-06T05:52:46.514Z,46.40
2022-11-06T05:53:46.451Z,33.00
2022-11-06T05:54:46.442Z,37.20
2022-11-06T05:55:46.445Z,39.10
2022-11-06T05:56:46.447Z,38.20
2022-11-06T05:57:46.438Z,35.80
2022-11-06T05:58:46.425Z,36.40
2022-11-06T05:59:46.427Z,35.80
2022-11-06T06:00:46.427Z,40.10
2022-11-06T06:01:46.506Z,42.80
2022-11-06T06:02:46.604Z,44.70
2022-11-06T06:03:46.396Z,45.20
2022-11-06T06:04:46.384Z,44.80
2022-11-06T06:05:46.387Z,45.40
2022-11-06T06:06:46.374Z,45.00
2022-11-06T06:07:46.394Z,39.50
2022-11-06T06:08:46.364Z,35.60
2022-11-06T06:09:46.364Z,38.30
2022-11-06T06:10:46.357Z,35.80
2022-11-06T06:11:46.340Z,37.40
2022-11-06T06:12:46.353Z,38.20
2022-11-06T06:13:46.374Z,36.30
2022-11-06T06:14:50.218Z,39.20
2022-11-06T06:15:47.324Z,43.50
2022-11-06T06:16:46.306Z,42.20
2022-11-06T06:17:46.302Z,40.90
2022-11-06T06:18:46.322Z,42.80
2022-11-06T06:19:46.288Z,43.80
2022-11-06T06:20:46.312Z,32.00
2022-11-06T06:21:46.343Z,37.50
2022-11-06T06:22:46.308Z,33.70
2022-11-06T06:23:46.279Z,34.50
2022-11-06T06:24:46.295Z,36.90
2022-11-06T06:25:46.307Z,38.40
2022-11-06T06:26:46.271Z,40.70
2022-11-06T06:27:46.247Z,44.40
2022-11-06T06:28:46.282Z,43.60
2022-11-06T06:29:46.249Z,43.30
2022-11-06T06:30:46.241Z,42.50
2022-11-06T06:31:46.235Z,45.60
2022-11-06T06:32:46.255Z,47.90
2022-11-06T06:33:46.237Z,22.60
2022-11-06T06:34:47.203Z,36.70
2022-11-06T06:35:46.207Z,37.30
2022-11-06T06:36:46.211Z,38.40
2022-11-06T06:37:46.176Z,35.20
2022-11-06T06:38:46.228Z,36.30
2022-11-06T06:39:46.163Z,37.90
2022-11-06T06:40:46.181Z,36.00
2022-11-06T06:41:46.172Z,40.70
2022-11-06T06:42:46.162Z,44.50
2022-11-06T06:43:46.145Z,45.90
2022-11-06T06:44:46.163Z,46.50
2022-11-06T06:45:46.166Z,44.80
2022-11-06T06:46:46.149Z,27.80
2022-11-06T06:47:46.135Z,36.70
2022-11-06T06:48:46.117Z,40.70
2022-11-06T06:49:46.131Z,38.00
2022-11-06T06:50:46.116Z,38.20
2022-11-06T06:52:21.633Z,41.60
2022-11-06T06:52:46.098Z,37.00
2022-11-06T06:53:46.082Z,34.50
2022-11-06T06:54:46.114Z,35.50
2022-11-06T06:55:46.084Z,34.30
2022-11-06T06:56:46.079Z,36.40
2022-11-06T06:57:46.051Z,35.90
2022-11-06T06:58:46.058Z,37.10
2022-11-06T06:59:46.056Z,39.90
2022-11-06T07:00:46.112Z,31.60
2022-11-06T07:01:46.169Z,36.10
2022-11-06T07:02:46.035Z,34.00
2022-11-06T07:03:46.019Z,31.10
2022-11-06T07:04:46.030Z,34.40
2022-11-06T07:05:46.015Z,35.90
2022-11-06T07:06:46.019Z,32.70
2022-11-06T07:07:46.008Z,31.80
2022-11-06T07:08:45.999Z,34.00
2022-11-06T07:09:45.999Z,32.00
2022-11-06T07:10:45.970Z,37.20
2022-11-06T07:11:46.160Z,32.20
2022-11-06T07:12:45.967Z,37.90
2022-11-06T07:13:45.962Z,36.90
2022-11-06T07:14:45.971Z,43.20
2022-11-06T07:15:45.951Z,38.70
2022-11-06T07:16:51.062Z,42.60
2022-11-06T07:17:48.130Z,24.80
2022-11-06T07:18:45.932Z,29.80
2022-11-06T07:19:45.927Z,31.30
2022-11-06T07:20:45.940Z,29.80
2022-11-06T07:21:45.931Z,35.00
2022-11-06T07:22:45.935Z,36.50
2022-11-06T07:23:45.920Z,35.80
2022-11-06T07:24:45.899Z,36.50
2022-11-06T07:25:45.892Z,38.20
2022-11-06T07:26:45.950Z,36.00
2022-11-06T07:27:45.878Z,36.30
2022-11-06T07:28:45.866Z,38.20
2022-11-06T07:29:45.871Z,36.70
2022-11-06T07:30:45.858Z,39.70
2022-11-06T07:31:45.863Z,41.80
2022-11-06T07:32:45.855Z,40.40
2022-11-06T07:33:45.855Z,40.10
2022-11-06T07:34:45.834Z,36.20
2022-11-06T07:35:45.818Z,37.10
2022-11-06T07:36:46.790Z,37.50
2022-11-06T07:37:45.890Z,24.10
2022-11-06T07:38:45.834Z,35.00
2022-11-06T07:39:45.819Z,35.40
2022-11-06T07:40:45.803Z,32.00
2022-11-06T07:41:45.852Z,29.90
2022-11-06T07:42:45.785Z,25.80
2022-11-06T07:43:45.774Z,34.00
2022-11-06T07:44:45.810Z,31.10
2022-11-06T07:45:45.772Z,25.10
2022-11-06T07:46:45.794Z,30.40
2022-11-06T07:47:45.770Z,32.70
2022-11-06T07:48:46.682Z,22.60
2022-11-06T07:49:50.736Z,22.80
2022-11-06T07:50:47.762Z,22.10
2022-11-06T07:51:45.737Z,14.30
2022-11-06T07:52:45.743Z,17.30
2022-11-06T07:53:45.753Z,16.60
2022-11-06T07:54:45.710Z,17.70
2022-11-06T07:55:45.714Z,18.30
2022-11-06T07:56:45.750Z,16.80
2022-11-06T07:57:45.765Z,18.80
2022-11-06T07:58:45.708Z,15.40
2022-11-06T07:59:45.794Z,16.30
2022-11-06T08:00:45.722Z,15.70
2022-11-06T08:01:45.878Z,17.90
2022-11-06T08:02:45.686Z,16.90
2022-11-06T08:03:45.686Z,17.00
2022-11-06T08:04:45.703Z,18.70
2022-11-06T08:05:45.669Z,17.70
2022-11-06T08:06:45.647Z,15.60
2022-11-06T08:07:45.657Z,15.80
2022-11-06T08:08:45.670Z,15.60
2022-11-06T08:09:45.682Z,15.50
2022-11-06T08:10:45.637Z,14.20
2022-11-06T08:11:45.679Z,11.50
2022-11-06T08:12:45.624Z,9.60
2022-11-06T08:13:45.610Z,10.20
2022-11-06T08:14:45.681Z,9.20
2022-11-06T08:15:46.294Z,7.90
2022-11-06T08:16:45.597Z,7.80
2022-11-06T08:17:45.633Z,7.60
2022-11-06T08:18:45.585Z,7.90
2022-11-06T08:19:45.848Z,7.90
2022-11-06T08:20:45.560Z,8.50
2022-11-06T08:21:45.561Z,7.30
2022-11-06T08:22:45.547Z,7.20
2022-11-06T08:23:45.622Z,6.90
2022-11-06T08:24:45.533Z,6.80
2022-11-06T08:25:45.563Z,7.10
2022-11-06T08:26:45.524Z,6.80
2022-11-06T08:27:45.508Z,6.90
2022-11-06T08:28:45.527Z,6.70
2022-11-06T08:29:45.532Z,7.00
2022-11-06T08:30:45.524Z,6.50
2022-11-06T08:31:45.552Z,6.50
2022-11-06T08:32:45.508Z,6.50
2022-11-06T08:33:45.475Z,6.70
2022-11-06T08:34:45.496Z,6.80
2022-11-06T08:35:45.468Z,6.60
2022-11-06T08:36:49.288Z,6.50
2022-11-06T08:37:46.463Z,6.50
2022-11-06T08:38:45.472Z,6.80
2022-11-06T08:39:45.451Z,6.40
2022-11-06T08:40:50.748Z,6.50
2022-11-06T08:41:47.460Z,6.60
2022-11-06T08:42:45.449Z,6.20
2022-11-06T08:43:45.425Z,6.60
2022-11-06T08:44:45.433Z,6.40
2022-11-06T08:45:45.418Z,6.40
2022-11-06T08:46:50.782Z,5.80
2022-11-06T08:47:47.440Z,6.20
2022-11-06T08:48:45.400Z,5.90
2022-11-06T08:49:45.407Z,6.10
2022-11-06T08:50:45.409Z,5.80
2022-11-06T08:51:45.456Z,6.00
2022-11-06T08:52:45.383Z,5.80
2022-11-06T08:53:45.426Z,5.80
2022-11-06T08:54:45.384Z,5.40
2022-11-06T08:55:45.365Z,5.40
2022-11-06T08:56:45.363Z,5.60
2022-11-06T08:57:45.353Z,5.20
2022-11-06T08:58:45.360Z,5.10
2022-11-06T08:59:45.340Z,5.60
2022-11-06T09:00:45.363Z,5.50
2022-11-06T09:01:45.512Z,5.50
2022-11-06T09:02:45.341Z,4.80
2022-11-06T09:03:45.311Z,5.30
2022-11-06T09:04:45.331Z,5.00
2022-11-06T09:05:45.288Z,5.10
2022-11-06T09:06:45.286Z,5.10
2022-11-06T09:07:45.288Z,5.00
2022-11-06T09:08:45.305Z,5.00
2022-11-06T09:09:45.277Z,4.90
2022-11-06T09:10:45.262Z,4.80
2022-11-06T09:11:45.271Z,5.30
2022-11-06T09:12:45.263Z,4.50
2022-11-06T09:13:45.245Z,4.50
2022-11-06T09:14:45.258Z,4.70
2022-11-06T09:15:45.250Z,5.20
2022-11-06T09:16:45.236Z,4.60
2022-11-06T09:17:45.253Z,4.80
2022-11-06T09:18:45.253Z,4.90
2022-11-06T09:19:45.195Z,4.60
2022-11-06T09:20:45.196Z,4.70
2022-11-06T09:21:48.004Z,4.40
2022-11-06T09:22:46.221Z,4.50
2022-11-06T09:23:45.172Z,4.70
2022-11-06T09:25:02.694Z,4.60
2022-11-06T09:25:47.171Z,4.40
2022-11-06T09:26:45.158Z,4.50
2022-11-06T09:27:45.157Z,4.50
2022-11-06T09:28:45.161Z,4.30
2022-11-06T09:29:45.147Z,4.70
2022-11-06T09:30:45.135Z,3.90
2022-11-06T09:31:45.162Z,4.20
2022-11-06T09:32:45.126Z,4.30
2022-11-06T09:33:45.129Z,5.00
2022-11-06T09:34:45.114Z,4.70
2022-11-06T09:35:45.125Z,5.00
2022-11-06T09:36:45.124Z,5.00
2022-11-06T09:37:45.128Z,4.50
2022-11-06T09:38:45.215Z,4.20
2022-11-06T09:39:45.109Z,4.00
2022-11-06T09:40:45.092Z,4.20
2022-11-06T09:41:45.072Z,3.80
2022-11-06T09:42:45.064Z,4.00
2022-11-06T09:44:47.056Z,4.00
2022-11-06T09:45:45.060Z,3.90
2022-11-06T09:46:45.056Z,3.70
2022-11-06T09:47:45.029Z,4.00
2022-11-06T09:48:45.038Z,4.10
2022-11-06T09:49:45.038Z,4.00
2022-11-06T09:50:45.983Z,3.40
2022-11-06T09:51:45.034Z,3.80
2022-11-06T09:52:45.066Z,3.80
2022-11-06T09:53:45.069Z,3.80
2022-11-06T09:54:45.121Z,4.20
2022-11-06T09:55:45.203Z,3.90
2022-11-06T09:56:45.030Z,3.10
2022-11-06T09:57:44.991Z,3.60
2022-11-06T09:58:44.980Z,3.30
2022-11-06T09:59:45.020Z,3.20
2022-11-06T10:00:44.982Z,3.60
2022-11-06T10:01:45.126Z,3.60
2022-11-06T10:02:44.996Z,3.70
2022-11-06T10:03:44.934Z,3.60
2022-11-06T10:04:44.962Z,3.40
2022-11-06T10:05:44.943Z,3.20
2022-11-06T10:06:44.925Z,3.20
2022-11-06T10:07:44.937Z,3.30
2022-11-06T10:08:44.921Z,3.60
2022-11-06T10:09:44.960Z,3.80
2022-11-06T10:10:44.891Z,3.90
2022-11-06T10:11:44.929Z,3.50
2022-11-06T10:12:44.890Z,2.90
2022-11-06T10:13:44.920Z,3.10
2022-11-06T10:14:44.976Z,3.50
2022-11-06T10:15:45.019Z,3.00
2022-11-06T10:16:44.891Z,3.10
2022-11-06T10:17:44.883Z,3.20
2022-11-06T10:18:44.892Z,3.80
2022-11-06T10:19:44.959Z,3.10
2022-11-06T10:20:44.943Z,3.20
2022-11-06T10:21:44.844Z,3.50
2022-11-06T10:22:44.990Z,3.40
2022-11-06T10:23:44.831Z,3.10
2022-11-06T10:24:44.810Z,3.10
2022-11-06T10:25:44.831Z,3.10
2022-11-06T10:26:44.783Z,2.90
2022-11-06T10:27:44.778Z,3.10
2022-11-06T10:28:44.815Z,3.30
2022-11-06T10:29:44.859Z,3.00
2022-11-06T10:30:44.776Z,3.20
2022-11-06T10:31:44.784Z,3.40
2022-11-06T10:32:44.813Z,3.20
2022-11-06T10:33:45.347Z,3.10
2022-11-06T10:34:44.787Z,2.80
2022-11-06T10:35:44.773Z,3.10
2022-11-06T10:36:48.818Z,3.10
2022-11-06T10:37:46.771Z,3.10
2022-11-06T10:38:44.742Z,3.20
2022-11-06T10:39:44.801Z,4.00
2022-11-06T10:40:44.766Z,3.10
2022-11-06T10:41:44.717Z,3.20
2022-11-06T10:42:44.744Z,3.10
2022-11-06T10:43:44.712Z,3.60
2022-11-06T10:44:44.733Z,3.60
2022-11-06T10:45:45.386Z,3.30
2022-11-06T10:46:44.730Z,3.00
2022-11-06T10:47:44.719Z,3.20
2022-11-06T10:48:44.676Z,3.00
2022-11-06T10:49:45.374Z,2.70
2022-11-06T10:50:44.712Z,2.70
2022-11-06T10:51:44.688Z,3.10
2022-11-06T10:52:44.663Z,2.80
2022-11-06T10:53:45.832Z,3.10
2022-11-06T10:54:44.677Z,2.90
2022-11-06T10:55:44.696Z,3.50
2022-11-06T10:56:44.882Z,3.10
2022-11-06T10:57:45.359Z,2.90
2022-11-06T10:58:44.755Z,2.80
2022-11-06T10:59:44.633Z,3.00
2022-11-06T11:00:44.698Z,2.80
2022-11-06T11:01:44.807Z,2.80
2022-11-06T11:02:44.668Z,2.70
2022-11-06T11:03:44.626Z,2.80
2022-11-06T11:04:44.633Z,2.80
2022-11-06T11:05:44.638Z,3.10
2022-11-06T11:06:44.611Z,3.00
2022-11-06T11:07:45.039Z,3.00
2022-11-06T11:08:44.628Z,2.90
2022-11-06T11:09:44.625Z,2.80
2022-11-06T11:10:56.077Z,2.70
2022-11-06T11:11:46.591Z,2.80
2022-11-06T11:12:44.655Z,2.70
2022-11-06T11:13:44.754Z,2.50
2022-11-06T11:14:45.523Z,2.70
2022-11-06T11:15:46.305Z,2.70
2022-11-06T11:16:44.653Z,2.60
2022-11-06T11:17:44.664Z,2.60
2022-11-06T11:18:44.690Z,2.80
2022-11-06T11:19:44.663Z,2.70
2022-11-06T11:20:44.628Z,2.50
2022-11-06T11:21:44.778Z,2.20
2022-11-06T11:22:44.694Z,2.30
2022-11-06T11:23:44.607Z,2.80
2022-11-06T11:24:44.547Z,2.20
2022-11-06T11:25:44.543Z,2.40
2022-11-06T11:26:44.601Z,2.60
2022-11-06T11:27:44.514Z,2.50
2022-11-06T11:28:44.548Z,2.30
2022-11-06T11:29:44.520Z,2.50
2022-11-06T11:30:44.521Z,2.70
2022-11-06T11:31:44.513Z,2.80
2022-11-06T11:32:44.494Z,2.80
2022-11-06T11:33:44.487Z,2.30
2022-11-06T11:34:49.203Z,2.30
2022-11-06T11:35:46.516Z,2.90
2022-11-06T11:36:44.536Z,2.80
2022-11-06T11:37:44.568Z,2.30
2022-11-06T11:38:44.453Z,2.60
2022-11-06T11:39:44.448Z,2.40
2022-11-06T11:40:44.486Z,2.20
2022-11-06T11:41:44.480Z,2.20
2022-11-06T11:42:44.507Z,2.20
2022-11-06T11:43:44.428Z,2.20
2022-11-06T11:44:44.442Z,2.60
2022-11-06T11:45:44.563Z,2.40
2022-11-06T11:46:44.421Z,2.40
2022-11-06T11:47:44.417Z,2.20
2022-11-06T11:48:44.424Z,2.40
2022-11-06T11:49:44.628Z,2.20
2022-11-06T11:50:44.415Z,2.20
2022-11-06T11:51:44.401Z,2.10
2022-11-06T11:54:05.350Z,2.50
2022-11-06T11:54:44.384Z,2.50
2022-11-06T11:55:44.453Z,2.20
2022-11-06T11:57:03.744Z,2.30
2022-11-06T11:57:46.417Z,2.50
2022-11-06T11:58:44.376Z,2.50
2022-11-06T11:59:44.461Z,2.30
2022-11-06T12:00:44.506Z,2.30
2022-11-06T12:01:44.491Z,2.40
2022-11-06T12:02:44.449Z,2.30
2022-11-06T12:03:44.650Z,2.50
2022-11-06T12:04:44.391Z,2.60
2022-11-06T12:05:44.334Z,2.20
2022-11-06T12:06:44.307Z,2.50
2022-11-06T12:07:46.424Z,2.20
2022-11-06T12:08:45.307Z,2.50
2022-11-06T12:09:44.304Z,2.70
2022-11-06T12:10:44.315Z,2.70
2022-11-06T12:11:44.300Z,2.30
2022-11-06T12:12:44.873Z,2.00
2022-11-06T12:13:44.276Z,2.10
2022-11-06T12:14:44.861Z,2.20
2022-11-06T12:15:44.347Z,2.00
2022-11-06T12:16:44.281Z,1.90
2022-11-06T12:17:44.378Z,2.30
2022-11-06T12:18:44.274Z,1.80
2022-11-06T12:19:44.264Z,2.00
2022-11-06T12:20:44.249Z,1.90
2022-11-06T12:21:44.328Z,1.50
2022-11-06T12:22:44.272Z,1.90
2022-11-06T12:23:44.522Z,1.70
2022-11-06T12:24:44.227Z,1.80
2022-11-06T12:25:44.369Z,1.80
2022-11-06T12:26:44.219Z,1.90
2022-11-06T12:27:44.498Z,1.90
2022-11-06T12:28:44.209Z,2.20
2022-11-06T12:29:45.248Z,2.10
2022-11-06T12:30:44.249Z,1.90
2022-11-06T12:31:44.267Z,2.10
2022-11-06T12:32:44.334Z,2.00
2022-11-06T12:34:05.722Z,2.10
2022-11-06T12:34:46.203Z,1.90
2022-11-06T12:35:44.329Z,1.60
2022-11-06T12:36:45.392Z,1.80
2022-11-06T12:37:44.208Z,1.70
2022-11-06T12:38:44.476Z,1.60
2022-11-06T12:39:44.190Z,1.70
2022-11-06T12:40:44.193Z,1.60
2022-11-06T12:41:44.152Z,2.00
2022-11-06T12:42:44.126Z,1.80
2022-11-06T12:43:44.149Z,2.30
2022-11-06T12:44:44.140Z,2.00
2022-11-06T12:45:44.118Z,1.90
2022-11-06T12:46:44.115Z,1.90
2022-11-06T12:47:44.092Z,1.70
2022-11-06T12:48:44.104Z,2.30
2022-11-06T12:49:44.086Z,1.80
2022-11-06T12:50:44.082Z,1.80
2022-11-06T12:51:44.064Z,1.90
2022-11-06T12:52:44.086Z,1.60
2022-11-06T12:53:44.071Z,2.00
2022-11-06T12:54:44.041Z,1.70
2022-11-06T12:55:44.041Z,1.50
2022-11-06T12:56:44.051Z,1.50
2022-11-06T12:57:44.042Z,1.40
2022-11-06T12:58:44.077Z,1.30
2022-11-06T12:59:44.083Z,1.50
2022-11-06T13:00:44.014Z,1.50
2022-11-06T13:01:44.157Z,1.30
2022-11-06T13:02:44.093Z,1.60
2022-11-06T13:03:44.000Z,1.40
2022-11-06T13:04:44.013Z,1.40
2022-11-06T13:05:43.985Z,1.50